sensor_id;sensor_type;location;lat;lon;timestamp;temperature;humidity
25360;DHT22;13311;51.386;0.016;2023-05-14T00:04:13;14.00;95.10
25360;DHT22;13311;51.386;0.016;2023-05-14T00:09:14;13.80;95.30
25360;DHT22;13311;51.386;0.016;2023-05-14T00:14:14;13.80;95.50
25360;DHT22;13311;51.386;0.016;2023-05-14T00:19:15;13.70;95.60
25360;DHT22;13311;51.386;0.016;2023-05-14T00:24:16;13.50;96.00
25360;DHT22;13311;51.386;0.016;2023-05-14T00:29:16;13.60;95.90
25360;DHT22;13311;51.386;0.016;2023-05-14T00:34:17;13.60;95.70
25360;DHT22;13311;51.386;0.016;2023-05-14T00:39:18;13.60;95.80
25360;DHT22;13311;51.386;0.016;2023-05-14T00:44:18;13.50;96.10
25360;DHT22;13311;51.386;0.016;2023-05-14T00:49:19;13.70;96.10
25360;DHT22;13311;51.386;0.016;2023-05-14T00:54:20;13.80;95.90
25360;DHT22;13311;51.386;0.016;2023-05-14T00:59:21;13.90;95.50
25360;DHT22;13311;51.386;0.016;2023-05-14T01:04:22;14.00;95.40
25360;DHT22;13311;51.386;0.016;2023-05-14T01:09:41;14.00;95.30
25360;DHT22;13311;51.386;0.016;2023-05-14T01:15:10;14.00;95.00
25360;DHT22;13311;51.386;0.016;2023-05-14T01:20:15;14.10;95.20
25360;DHT22;13311;51.386;0.016;2023-05-14T01:25:16;14.10;95.10
25360;DHT22;13311;51.386;0.016;2023-05-14T01:30:53;14.10;95.00
25360;DHT22;13311;51.386;0.016;2023-05-14T01:36:01;13.90;95.10
25360;DHT22;13311;51.386;0.016;2023-05-14T01:41:04;13.70;95.40
25360;DHT22;13311;51.386;0.016;2023-05-14T01:46:05;13.60;95.60
25360;DHT22;13311;51.386;0.016;2023-05-14T01:51:05;13.70;95.70
25360;DHT22;13311;51.386;0.016;2023-05-14T01:56:06;13.80;95.80
25360;DHT22;13311;51.386;0.016;2023-05-14T02:01:07;13.90;95.30
25360;DHT22;13311;51.386;0.016;2023-05-14T02:06:07;14.00;95.00
25360;DHT22;13311;51.386;0.016;2023-05-14T02:11:08;13.90;95.10
25360;DHT22;13311;51.386;0.016;2023-05-14T02:16:09;13.80;95.10
25360;DHT22;13311;51.386;0.016;2023-05-14T02:21:09;13.70;95.30
25360;DHT22;13311;51.386;0.016;2023-05-14T02:26:10;13.60;95.50
25360;DHT22;13311;51.386;0.016;2023-05-14T02:31:11;13.60;95.60
25360;DHT22;13311;51.386;0.016;2023-05-14T02:36:12;13.70;95.50
25360;DHT22;13311;51.386;0.016;2023-05-14T02:41:12;13.80;95.40
25360;DHT22;13311;51.386;0.016;2023-05-14T02:46:13;13.80;95.40
25360;DHT22;13311;51.386;0.016;2023-05-14T02:51:14;13.90;95.50
25360;DHT22;13311;51.386;0.016;2023-05-14T02:56:15;14.00;95.30
25360;DHT22;13311;51.386;0.016;2023-05-14T03:01:16;14.10;95.20
25360;DHT22;13311;51.386;0.016;2023-05-14T03:06:18;14.10;95.20
25360;DHT22;13311;51.386;0.016;2023-05-14T03:11:18;14.00;95.20
25360;DHT22;13311;51.386;0.016;2023-05-14T03:16:19;14.10;94.70
25360;DHT22;13311;51.386;0.016;2023-05-14T03:21:20;13.90;95.00
25360;DHT22;13311;51.386;0.016;2023-05-14T03:26:20;13.90;95.20
25360;DHT22;13311;51.386;0.016;2023-05-14T03:31:21;13.80;95.30
25360;DHT22;13311;51.386;0.016;2023-05-14T03:36:22;14.00;95.40
25360;DHT22;13311;51.386;0.016;2023-05-14T03:41:22;14.20;95.00
25360;DHT22;13311;51.386;0.016;2023-05-14T03:46:23;14.20;94.60
25360;DHT22;13311;51.386;0.016;2023-05-14T03:51:24;14.00;94.90
25360;DHT22;13311;51.386;0.016;2023-05-14T03:56:25;13.90;95.10
25360;DHT22;13311;51.386;0.016;2023-05-14T04:01:25;13.80;95.20
25360;DHT22;13311;51.386;0.016;2023-05-14T04:06:26;13.80;95.40
25360;DHT22;13311;51.386;0.016;2023-05-14T04:11:27;13.90;95.20
25360;DHT22;13311;51.386;0.016;2023-05-14T04:16:27;13.80;95.10
25360;DHT22;13311;51.386;0.016;2023-05-14T04:21:28;13.80;95.20
25360;DHT22;13311;51.386;0.016;2023-05-14T04:26:29;13.80;95.20
25360;DHT22;13311;51.386;0.016;2023-05-14T04:31:29;13.80;95.20
25360;DHT22;13311;51.386;0.016;2023-05-14T04:36:30;13.80;95.30
25360;DHT22;13311;51.386;0.016;2023-05-14T04:41:31;13.80;95.00
25360;DHT22;13311;51.386;0.016;2023-05-14T04:46:32;13.70;95.30
25360;DHT22;13311;51.386;0.016;2023-05-14T04:51:33;13.80;95.30
25360;DHT22;13311;51.386;0.016;2023-05-14T04:56:33;13.70;95.30
25360;DHT22;13311;51.386;0.016;2023-05-14T05:01:34;13.80;95.20
25360;DHT22;13311;51.386;0.016;2023-05-14T05:06:35;13.70;94.90
25360;DHT22;13311;51.386;0.016;2023-05-14T05:11:36;13.70;95.00
25360;DHT22;13311;51.386;0.016;2023-05-14T05:16:38;13.60;95.30
25360;DHT22;13311;51.386;0.016;2023-05-14T05:21:38;13.60;95.50
25360;DHT22;13311;51.386;0.016;2023-05-14T05:26:42;13.50;95.40
25360;DHT22;13311;51.386;0.016;2023-05-14T05:31:43;13.40;95.60
25360;DHT22;13311;51.386;0.016;2023-05-14T05:36:43;13.40;95.70
25360;DHT22;13311;51.386;0.016;2023-05-14T05:41:44;13.50;95.70
25360;DHT22;13311;51.386;0.016;2023-05-14T05:46:45;13.50;95.80
25360;DHT22;13311;51.386;0.016;2023-05-14T05:51:45;13.60;95.40
25360;DHT22;13311;51.386;0.016;2023-05-14T05:56:46;13.80;95.20
25360;DHT22;13311;51.386;0.016;2023-05-14T06:01:47;13.90;95.10
25360;DHT22;13311;51.386;0.016;2023-05-14T06:06:47;13.90;94.90
25360;DHT22;13311;51.386;0.016;2023-05-14T06:11:48;13.60;95.10
25360;DHT22;13311;51.386;0.016;2023-05-14T06:16:49;13.50;95.40
25360;DHT22;13311;51.386;0.016;2023-05-14T06:21:49;13.40;95.70
25360;DHT22;13311;51.386;0.016;2023-05-14T06:26:50;13.40;95.70
25360;DHT22;13311;51.386;0.016;2023-05-14T06:31:51;13.30;95.70
25360;DHT22;13311;51.386;0.016;2023-05-14T06:36:52;13.30;95.70
25360;DHT22;13311;51.386;0.016;2023-05-14T06:41:52;13.50;95.50
25360;DHT22;13311;51.386;0.016;2023-05-14T06:46:53;13.60;95.50
25360;DHT22;13311;51.386;0.016;2023-05-14T06:51:54;13.60;95.60
25360;DHT22;13311;51.386;0.016;2023-05-14T06:56:54;13.70;95.30
25360;DHT22;13311;51.386;0.016;2023-05-14T07:01:55;13.70;94.90
25360;DHT22;13311;51.386;0.016;2023-05-14T07:06:56;13.60;95.00
25360;DHT22;13311;51.386;0.016;2023-05-14T07:11:56;13.70;94.80
25360;DHT22;13311;51.386;0.016;2023-05-14T07:16:57;13.80;95.00
25360;DHT22;13311;51.386;0.016;2023-05-14T07:21:58;13.90;94.50
25360;DHT22;13311;51.386;0.016;2023-05-14T07:26:59;13.90;94.60
25360;DHT22;13311;51.386;0.016;2023-05-14T07:32:01;13.90;94.50
25360;DHT22;13311;51.386;0.016;2023-05-14T07:37:01;14.00;94.30
25360;DHT22;13311;51.386;0.016;2023-05-14T07:42:03;14.20;94.20
25360;DHT22;13311;51.386;0.016;2023-05-14T07:47:04;14.60;93.50
25360;DHT22;13311;51.386;0.016;2023-05-14T07:52:06;14.40;93.90
25360;DHT22;13311;51.386;0.016;2023-05-14T07:57:07;14.40;94.00
25360;DHT22;13311;51.386;0.016;2023-05-14T08:02:08;14.70;94.10
25360;DHT22;13311;51.386;0.016;2023-05-14T08:07:11;14.90;93.20
25360;DHT22;13311;51.386;0.016;2023-05-14T08:12:12;14.90;93.30
25360;DHT22;13311;51.386;0.016;2023-05-14T08:17:13;15.10;93.50
25360;DHT22;13311;51.386;0.016;2023-05-14T08:22:14;15.40;93.20
25360;DHT22;13311;51.386;0.016;2023-05-14T08:27:15;15.60;93.30
25360;DHT22;13311;51.386;0.016;2023-05-14T08:32:18;15.90;92.90
25360;DHT22;13311;51.386;0.016;2023-05-14T08:37:19;16.10;91.90
25360;DHT22;13311;51.386;0.016;2023-05-14T08:42:20;16.20;92.00
25360;DHT22;13311;51.386;0.016;2023-05-14T08:47:24;16.30;91.30
25360;DHT22;13311;51.386;0.016;2023-05-14T08:52:25;16.70;91.40
25360;DHT22;13311;51.386;0.016;2023-05-14T08:57:27;17.20;91.60
25360;DHT22;13311;51.386;0.016;2023-05-14T09:02:30;17.90;90.70
25360;DHT22;13311;51.386;0.016;2023-05-14T09:07:32;18.50;89.50
25360;DHT22;13311;51.386;0.016;2023-05-14T09:12:33;18.80;87.00
25360;DHT22;13311;51.386;0.016;2023-05-14T09:17:33;19.20;87.40
25360;DHT22;13311;51.386;0.016;2023-05-14T09:22:35;19.30;86.20
25360;DHT22;13311;51.386;0.016;2023-05-14T09:27:35;19.60;85.70
25360;DHT22;13311;51.386;0.016;2023-05-14T09:32:38;19.80;85.30
25360;DHT22;13311;51.386;0.016;2023-05-14T09:37:44;19.70;83.40
25360;DHT22;13311;51.386;0.016;2023-05-14T09:42:49;20.10;84.50
25360;DHT22;13311;51.386;0.016;2023-05-14T09:47:49;20.40;82.60
25360;DHT22;13311;51.386;0.016;2023-05-14T09:52:50;20.70;82.80
25360;DHT22;13311;51.386;0.016;2023-05-14T09:57:54;20.80;82.00
25360;DHT22;13311;51.386;0.016;2023-05-14T10:02:56;20.90;81.60
25360;DHT22;13311;51.386;0.016;2023-05-14T10:07:58;21.20;81.00
25360;DHT22;13311;51.386;0.016;2023-05-14T10:13:04;21.70;81.30
25360;DHT22;13311;51.386;0.016;2023-05-14T10:18:18;22.10;80.40
25360;DHT22;13311;51.386;0.016;2023-05-14T10:23:19;22.20;76.50
25360;DHT22;13311;51.386;0.016;2023-05-14T10:28:20;22.20;77.50
25360;DHT22;13311;51.386;0.016;2023-05-14T10:33:22;22.50;77.00
25360;DHT22;13311;51.386;0.016;2023-05-14T10:38:29;22.60;75.50
25360;DHT22;13311;51.386;0.016;2023-05-14T10:43:36;22.50;75.30
25360;DHT22;13311;51.386;0.016;2023-05-14T10:48:41;22.40;75.70
25360;DHT22;13311;51.386;0.016;2023-05-14T10:53:42;22.50;74.90
25360;DHT22;13311;51.386;0.016;2023-05-14T10:58:44;22.70;75.10
25360;DHT22;13311;51.386;0.016;2023-05-14T11:03:45;22.70;74.20
25360;DHT22;13311;51.386;0.016;2023-05-14T11:08:46;22.50;74.60
25360;DHT22;13311;51.386;0.016;2023-05-14T11:13:49;22.60;76.10
25360;DHT22;13311;51.386;0.016;2023-05-14T11:19:01;22.60;74.60
25360;DHT22;13311;51.386;0.016;2023-05-14T11:24:03;22.00;75.00
25360;DHT22;13311;51.386;0.016;2023-05-14T11:29:04;22.10;77.60
25360;DHT22;13311;51.386;0.016;2023-05-14T11:34:05;22.30;77.80
25360;DHT22;13311;51.386;0.016;2023-05-14T11:39:07;22.30;75.80
25360;DHT22;13311;51.386;0.016;2023-05-14T11:44:09;22.40;75.80
25360;DHT22;13311;51.386;0.016;2023-05-14T11:49:11;22.70;75.40
25360;DHT22;13311;51.386;0.016;2023-05-14T11:54:13;23.20;76.70
25360;DHT22;13311;51.386;0.016;2023-05-14T11:59:13;23.20;74.30
25360;DHT22;13311;51.386;0.016;2023-05-14T12:04:17;23.30;73.00
25360;DHT22;13311;51.386;0.016;2023-05-14T12:09:21;23.70;76.10
25360;DHT22;13311;51.386;0.016;2023-05-14T12:14:23;23.90;71.10
25360;DHT22;13311;51.386;0.016;2023-05-14T12:19:24;24.00;77.90
25360;DHT22;13311;51.386;0.016;2023-05-14T12:24:25;24.10;78.60
25360;DHT22;13311;51.386;0.016;2023-05-14T12:29:25;24.20;75.20
25360;DHT22;13311;51.386;0.016;2023-05-14T12:34:26;24.30;76.80
25360;DHT22;13311;51.386;0.016;2023-05-14T12:39:27;24.50;74.80
25360;DHT22;13311;51.386;0.016;2023-05-14T12:44:29;24.60;76.30
25360;DHT22;13311;51.386;0.016;2023-05-14T12:49:30;24.70;71.00
25360;DHT22;13311;51.386;0.016;2023-05-14T12:54:30;24.90;70.50
25360;DHT22;13311;51.386;0.016;2023-05-14T12:59:31;25.10;69.30
25360;DHT22;13311;51.386;0.016;2023-05-14T13:04:32;25.10;71.60
25360;DHT22;13311;51.386;0.016;2023-05-14T13:09:33;25.20;68.90
25360;DHT22;13311;51.386;0.016;2023-05-14T13:14:33;25.30;74.20
25360;DHT22;13311;51.386;0.016;2023-05-14T13:19:35;25.30;64.60
25360;DHT22;13311;51.386;0.016;2023-05-14T13:24:36;25.30;66.40
25360;DHT22;13311;51.386;0.016;2023-05-14T13:29:37;25.20;64.90
25360;DHT22;13311;51.386;0.016;2023-05-14T13:34:37;25.30;73.40
25360;DHT22;13311;51.386;0.016;2023-05-14T13:39:38;25.30;70.20
25360;DHT22;13311;51.386;0.016;2023-05-14T13:44:39;25.30;63.80
25360;DHT22;13311;51.386;0.016;2023-05-14T13:49:39;25.30;64.00
25360;DHT22;13311;51.386;0.016;2023-05-14T13:54:40;25.40;71.40
25360;DHT22;13311;51.386;0.016;2023-05-14T13:59:41;25.30;62.90
25360;DHT22;13311;51.386;0.016;2023-05-14T14:04:41;25.10;64.60
25360;DHT22;13311;51.386;0.016;2023-05-14T14:09:42;25.30;66.80
25360;DHT22;13311;51.386;0.016;2023-05-14T14:14:44;25.20;61.20
25360;DHT22;13311;51.386;0.016;2023-05-14T14:19:45;25.30;64.00
25360;DHT22;13311;51.386;0.016;2023-05-14T14:24:45;25.10;59.20
25360;DHT22;13311;51.386;0.016;2023-05-14T14:29:46;24.70;60.60
25360;DHT22;13311;51.386;0.016;2023-05-14T14:34:47;24.70;61.30
25360;DHT22;13311;51.386;0.016;2023-05-14T14:39:47;24.70;58.50
25360;DHT22;13311;51.386;0.016;2023-05-14T14:44:48;24.70;59.50
25360;DHT22;13311;51.386;0.016;2023-05-14T14:49:49;24.80;60.00
25360;DHT22;13311;51.386;0.016;2023-05-14T14:54:50;24.90;61.40
25360;DHT22;13311;51.386;0.016;2023-05-14T14:59:50;24.60;56.20
25360;DHT22;13311;51.386;0.016;2023-05-14T15:04:52;24.70;66.60
25360;DHT22;13311;51.386;0.016;2023-05-14T15:09:54;24.60;59.90
25360;DHT22;13311;51.386;0.016;2023-05-14T15:14:54;24.60;58.10
25360;DHT22;13311;51.386;0.016;2023-05-14T15:19:55;24.70;61.80
25360;DHT22;13311;51.386;0.016;2023-05-14T15:24:56;24.70;58.90
25360;DHT22;13311;51.386;0.016;2023-05-14T15:29:56;24.90;66.00
25360;DHT22;13311;51.386;0.016;2023-05-14T15:34:57;25.00;63.60
25360;DHT22;13311;51.386;0.016;2023-05-14T15:39:58;25.10;60.30
25360;DHT22;13311;51.386;0.016;2023-05-14T15:44:59;25.10;67.30
25360;DHT22;13311;51.386;0.016;2023-05-14T15:50:00;25.00;59.00
25360;DHT22;13311;51.386;0.016;2023-05-14T15:55:01;24.90;62.30
25360;DHT22;13311;51.386;0.016;2023-05-14T16:00:04;25.00;60.10
25360;DHT22;13311;51.386;0.016;2023-05-14T16:05:10;25.00;60.40
25360;DHT22;13311;51.386;0.016;2023-05-14T16:10:10;25.10;68.10
25360;DHT22;13311;51.386;0.016;2023-05-14T16:15:11;25.10;62.80
25360;DHT22;13311;51.386;0.016;2023-05-14T16:20:14;25.00;60.20
25360;DHT22;13311;51.386;0.016;2023-05-14T16:25:14;25.00;62.80
25360;DHT22;13311;51.386;0.016;2023-05-14T16:30:17;25.10;66.60
25360;DHT22;13311;51.386;0.016;2023-05-14T16:35:18;25.10;61.80
25360;DHT22;13311;51.386;0.016;2023-05-14T16:40:19;25.00;60.90
25360;DHT22;13311;51.386;0.016;2023-05-14T16:45:22;25.00;61.80
25360;DHT22;13311;51.386;0.016;2023-05-14T16:50:23;24.90;61.10
25360;DHT22;13311;51.386;0.016;2023-05-14T16:55:23;24.90;63.60
25360;DHT22;13311;51.386;0.016;2023-05-14T17:00:25;25.00;62.40
25360;DHT22;13311;51.386;0.016;2023-05-14T17:05:25;24.90;62.40
25360;DHT22;13311;51.386;0.016;2023-05-14T17:10:26;24.90;64.50
25360;DHT22;13311;51.386;0.016;2023-05-14T17:15:28;24.70;62.00
25360;DHT22;13311;51.386;0.016;2023-05-14T17:20:28;24.60;62.50
25360;DHT22;13311;51.386;0.016;2023-05-14T17:25:30;24.70;63.90
25360;DHT22;13311;51.386;0.016;2023-05-14T17:30:32;24.50;63.20
25360;DHT22;13311;51.386;0.016;2023-05-14T17:35:33;24.50;63.80
25360;DHT22;13311;51.386;0.016;2023-05-14T17:40:35;24.40;66.00
25360;DHT22;13311;51.386;0.016;2023-05-14T17:45:36;24.30;64.70
25360;DHT22;13311;51.386;0.016;2023-05-14T17:50:36;24.20;65.20
25360;DHT22;13311;51.386;0.016;2023-05-14T17:55:38;24.20;64.90
25360;DHT22;13311;51.386;0.016;2023-05-14T18:00:42;24.20;66.70
25360;DHT22;13311;51.386;0.016;2023-05-14T18:05:43;24.00;66.90
25360;DHT22;13311;51.386;0.016;2023-05-14T18:10:44;24.00;67.50
25360;DHT22;13311;51.386;0.016;2023-05-14T18:15:44;23.90;67.90
25360;DHT22;13311;51.386;0.016;2023-05-14T18:20:45;23.70;70.00
25360;DHT22;13311;51.386;0.016;2023-05-14T18:25:46;23.50;71.60
25360;DHT22;13311;51.386;0.016;2023-05-14T18:30:47;23.40;74.10
25360;DHT22;13311;51.386;0.016;2023-05-14T18:35:51;23.30;76.80
25360;DHT22;13311;51.386;0.016;2023-05-14T18:40:52;23.00;78.70
25360;DHT22;13311;51.386;0.016;2023-05-14T18:45:53;22.90;79.50
25360;DHT22;13311;51.386;0.016;2023-05-14T18:50:54;22.90;80.10
25360;DHT22;13311;51.386;0.016;2023-05-14T18:55:54;22.70;81.50
25360;DHT22;13311;51.386;0.016;2023-05-14T19:00:55;22.50;82.70
25360;DHT22;13311;51.386;0.016;2023-05-14T19:05:57;22.30;83.90
25360;DHT22;13311;51.386;0.016;2023-05-14T19:10:58;22.10;84.70
25360;DHT22;13311;51.386;0.016;2023-05-14T19:15:59;21.90;85.20
25360;DHT22;13311;51.386;0.016;2023-05-14T19:20:59;21.80;85.40
25360;DHT22;13311;51.386;0.016;2023-05-14T19:26:00;21.70;85.60
25360;DHT22;13311;51.386;0.016;2023-05-14T19:31:01;21.70;86.20
25360;DHT22;13311;51.386;0.016;2023-05-14T19:36:02;21.60;86.60
25360;DHT22;13311;51.386;0.016;2023-05-14T19:41:03;21.60;86.90
25360;DHT22;13311;51.386;0.016;2023-05-14T19:46:04;21.60;87.10
25360;DHT22;13311;51.386;0.016;2023-05-14T19:51:05;21.50;87.40
25360;DHT22;13311;51.386;0.016;2023-05-14T19:56:06;21.40;88.10
25360;DHT22;13311;51.386;0.016;2023-05-14T20:01:06;21.30;88.80
25360;DHT22;13311;51.386;0.016;2023-05-14T20:06:07;21.20;89.30
25360;DHT22;13311;51.386;0.016;2023-05-14T20:11:08;21.20;89.40
25360;DHT22;13311;51.386;0.016;2023-05-14T20:16:09;21.10;89.70
25360;DHT22;13311;51.386;0.016;2023-05-14T20:21:09;21.00;89.20
25360;DHT22;13311;51.386;0.016;2023-05-14T20:26:10;21.00;89.40
25360;DHT22;13311;51.386;0.016;2023-05-14T20:31:11;21.00;89.70
25360;DHT22;13311;51.386;0.016;2023-05-14T20:36:12;20.90;90.00
25360;DHT22;13311;51.386;0.016;2023-05-14T20:41:13;20.80;90.20
25360;DHT22;13311;51.386;0.016;2023-05-14T20:46:14;20.80;90.40
25360;DHT22;13311;51.386;0.016;2023-05-14T20:51:15;20.70;90.40
25360;DHT22;13311;51.386;0.016;2023-05-14T20:56:16;20.80;88.90
25360;DHT22;13311;51.386;0.016;2023-05-14T21:01:17;20.90;84.70
25360;DHT22;13311;51.386;0.016;2023-05-14T21:06:18;20.80;86.00
25360;DHT22;13311;51.386;0.016;2023-05-14T21:11:19;20.80;88.20
25360;DHT22;13311;51.386;0.016;2023-05-14T21:16:21;20.70;88.30
25360;DHT22;13311;51.386;0.016;2023-05-14T21:21:22;20.70;82.70
25360;DHT22;13311;51.386;0.016;2023-05-14T21:26:24;20.60;79.30
25360;DHT22;13311;51.386;0.016;2023-05-14T21:31:25;20.60;76.40
25360;DHT22;13311;51.386;0.016;2023-05-14T21:36:26;20.60;75.20
25360;DHT22;13311;51.386;0.016;2023-05-14T21:41:26;20.60;75.00
25360;DHT22;13311;51.386;0.016;2023-05-14T21:46:27;20.50;74.50
25360;DHT22;13311;51.386;0.016;2023-05-14T21:51:28;20.50;74.20
25360;DHT22;13311;51.386;0.016;2023-05-14T21:56:29;20.50;73.80
25360;DHT22;13311;51.386;0.016;2023-05-14T22:01:30;20.50;73.80
25360;DHT22;13311;51.386;0.016;2023-05-14T22:06:30;20.50;73.50
25360;DHT22;13311;51.386;0.016;2023-05-14T22:11:31;20.50;72.70
25360;DHT22;13311;51.386;0.016;2023-05-14T22:16:32;20.40;72.80
25360;DHT22;13311;51.386;0.016;2023-05-14T22:21:33;20.30;72.80
25360;DHT22;13311;51.386;0.016;2023-05-14T22:26:33;20.30;72.60
25360;DHT22;13311;51.386;0.016;2023-05-14T22:31:34;20.30;72.20
25360;DHT22;13311;51.386;0.016;2023-05-14T22:36:35;20.10;72.40
25360;DHT22;13311;51.386;0.016;2023-05-14T22:41:35;20.10;72.40
25360;DHT22;13311;51.386;0.016;2023-05-14T22:46:36;20.20;74.10
25360;DHT22;13311;51.386;0.016;2023-05-14T22:51:37;20.20;72.50
25360;DHT22;13311;51.386;0.016;2023-05-14T22:56:38;20.10;72.80
25360;DHT22;13311;51.386;0.016;2023-05-14T23:01:38;20.20;72.50
25360;DHT22;13311;51.386;0.016;2023-05-14T23:06:39;20.20;73.70
25360;DHT22;13311;51.386;0.016;2023-05-14T23:11:40;20.30;74.00
25360;DHT22;13311;51.386;0.016;2023-05-14T23:16:41;20.40;73.50
25360;DHT22;13311;51.386;0.016;2023-05-14T23:21:42;20.30;73.00
25360;DHT22;13311;51.386;0.016;2023-05-14T23:26:42;20.30;72.40
25360;DHT22;13311;51.386;0.016;2023-05-14T23:31:43;20.10;73.10
25360;DHT22;13311;51.386;0.016;2023-05-14T23:36:44;20.10;74.70
25360;DHT22;13311;51.386;0.016;2023-05-14T23:41:45;20.10;74.90
25360;DHT22;13311;51.386;0.016;2023-05-14T23:46:45;20.10;74.20
25360;DHT22;13311;51.386;0.016;2023-05-14T23:51:46;20.00;74.30
25360;DHT22;13311;51.386;0.016;2023-05-14T23:56:47;19.90;74.90
